Time;durP1;ratioP1;P1;durP2;ratioP2;P2;SDS_P1;SDS_P2;PMS_P1;PMS_P2;Temp;Humidity;BMP_temperature;BMP_pressure;BME280_temperature;BME280_humidity;BME280_pressure;Samples;Min_cycle;Max_cycle;Signal;HPM_P1;HPM_P2
2022/11/15 00:00:54;;;;;;;0.70;0.70;;;8.40;99.90;;;;;;5070190;28;20107;-74
2022/11/15 00:03:22;;;;;;;0.80;0.80;;;8.40;99.90;;;;;;5067859;28;20428;-73
2022/11/15 00:05:49;;;;;;;0.70;0.70;;;8.40;99.90;;;;;;5065667;28;20059;-73
2022/11/15 00:08:14;;;;;;;0.80;0.80;;;8.50;99.90;;;;;;5060727;28;20024;-72
2022/11/15 00:10:40;;;;;;;0.68;0.68;;;8.50;99.90;;;;;;5072185;28;20029;-73
2022/11/15 00:13:10;;;;;;;0.60;0.60;;;8.50;99.90;;;;;;5060434;28;20033;-74
2022/11/15 00:15:40;;;;;;;0.80;0.80;;;8.50;99.90;;;;;;5073873;28;20035;-73
2022/11/15 00:18:11;;;;;;;0.60;0.60;;;8.50;99.90;;;;;;5060293;28;20021;-73
2022/11/15 00:20:37;;;;;;;0.88;0.88;;;8.60;99.90;;;;;;5061502;28;20052;-73
2022/11/15 00:23:04;;;;;;;0.70;0.70;;;8.50;99.90;;;;;;5073060;28;20743;-73
2022/11/15 00:25:29;;;;;;;2.35;2.25;;;8.50;99.90;;;;;;5073590;28;20543;-73
2022/11/15 00:27:56;;;;;;;0.60;0.60;;;8.50;99.90;;;;;;5078052;28;20047;-74
2022/11/15 00:30:22;;;;;;;0.63;0.63;;;8.50;99.90;;;;;;5081100;28;20020;-74
2022/11/15 00:32:48;;;;;;;0.70;0.70;;;8.50;99.90;;;;;;5073430;28;20035;-73
2022/11/15 00:35:14;;;;;;;1.17;1.17;;;8.40;99.90;;;;;;5059755;28;20025;-73
2022/11/15 00:37:39;;;;;;;0.80;0.80;;;8.40;99.90;;;;;;5057829;28;20034;-73
2022/11/15 00:40:06;;;;;;;0.70;0.70;;;8.40;99.90;;;;;;5073428;28;20024;-74
2022/11/15 00:42:31;;;;;;;0.70;0.70;;;8.30;99.90;;;;;;5067817;28;20083;-74
2022/11/15 00:44:57;;;;;;;0.70;0.70;;;8.30;99.90;;;;;;5065219;28;20029;-74
2022/11/15 00:47:22;;;;;;;0.75;0.75;;;8.30;99.90;;;;;;5052175;28;20474;-74
2022/11/15 00:49:48;;;;;;;0.80;0.80;;;8.20;99.90;;;;;;5064967;28;20513;-74
2022/11/15 00:52:13;;;;;;;0.70;0.70;;;8.20;99.90;;;;;;5060146;28;20478;-73
2022/11/15 00:54:39;;;;;;;0.73;0.73;;;8.20;99.90;;;;;;5073005;28;20082;-73
2022/11/15 00:57:04;;;;;;;0.80;0.80;;;8.30;99.90;;;;;;5071965;28;20033;-73
2022/11/15 00:59:30;;;;;;;0.70;0.70;;;8.40;99.90;;;;;;5072118;28;20040;-74
2022/11/15 01:01:55;;;;;;;1.77;1.73;;;8.40;99.90;;;;;;5067542;28;20100;-73
2022/11/15 01:04:21;;;;;;;0.80;0.80;;;8.40;99.90;;;;;;5062980;28;20054;-74
2022/11/15 01:06:46;;;;;;;0.70;0.70;;;8.50;99.90;;;;;;5071741;28;20050;-73
2022/11/15 01:09:13;;;;;;;0.70;0.70;;;8.50;99.90;;;;;;5070756;28;20028;-73
2022/11/15 01:11:39;;;;;;;0.70;0.70;;;8.50;99.90;;;;;;5066512;28;20019;-72
2022/11/15 01:14:05;;;;;;;0.93;0.93;;;8.50;99.90;;;;;;5050613;28;20025;-72
2022/11/15 01:16:31;;;;;;;0.70;0.70;;;8.60;99.90;;;;;;5070620;28;20021;-72
2022/11/15 01:18:56;;;;;;;0.70;0.70;;;8.70;99.90;;;;;;5071730;28;20466;-72
2022/11/15 01:21:22;;;;;;;0.70;0.70;;;8.60;99.90;;;;;;5052885;28;20094;-72
2022/11/15 01:23:47;;;;;;;0.70;0.70;;;8.60;99.90;;;;;;5050361;28;20025;-74
2022/11/15 01:26:15;;;;;;;0.70;0.70;;;8.60;99.90;;;;;;5064940;28;20033;-73
2022/11/15 01:28:41;;;;;;;0.70;0.70;;;8.60;99.90;;;;;;5063515;28;20081;-73
2022/11/15 01:31:12;;;;;;;0.70;0.70;;;8.50;99.90;;;;;;5071095;28;20052;-72
2022/11/15 01:33:38;;;;;;;0.80;0.80;;;8.50;99.90;;;;;;5058847;28;20070;-72
2022/11/15 01:36:11;;;;;;;0.93;0.93;;;8.60;99.90;;;;;;5057521;28;20032;-73
2022/11/15 01:38:36;;;;;;;0.70;0.70;;;8.60;99.90;;;;;;5071139;28;20116;-72
2022/11/15 01:41:03;;;;;;;0.70;0.70;;;8.60;99.90;;;;;;5071456;28;20111;-75
2022/11/15 01:43:35;;;;;;;0.93;0.93;;;8.60;99.90;;;;;;5070037;28;20028;-74
2022/11/15 01:46:33;;;;;;;0.70;0.70;;;8.60;99.90;;;;;;5071096;28;20078;-74
2022/11/15 01:49:05;;;;;;;0.70;0.70;;;8.60;99.90;;;;;;5078438;28;20032;-75
2022/11/15 01:51:33;;;;;;;0.73;0.73;;;8.50;99.90;;;;;;5060660;28;20028;-74
2022/11/15 01:54:08;;;;;;;0.70;0.70;;;8.60;99.90;;;;;;5051046;28;20033;-74
2022/11/15 01:56:52;;;;;;;0.70;0.70;;;8.70;99.90;;;;;;5012850;28;1074742;-74
2022/11/15 01:59:19;;;;;;;1.50;1.50;;;8.70;99.90;;;;;;5050690;28;20078;-73
2022/11/15 02:01:44;;;;;;;0.60;0.60;;;8.80;99.90;;;;;;5051781;28;20039;-73
2022/11/15 02:04:15;;;;;;;0.60;0.60;;;8.80;99.90;;;;;;5051803;28;20108;-74
2022/11/15 02:06:42;;;;;;;0.60;0.60;;;8.80;99.90;;;;;;5050339;28;20036;-73
2022/11/15 02:09:08;;;;;;;0.60;0.60;;;8.90;99.90;;;;;;5051556;28;20029;-75
2022/11/15 02:11:33;;;;;;;0.65;0.65;;;9.00;99.90;;;;;;5054981;28;20371;-74
2022/11/15 02:14:01;;;;;;;0.60;0.60;;;9.00;99.90;;;;;;5071747;28;20017;-74
2022/11/15 02:16:44;;;;;;;0.60;0.60;;;9.10;99.90;;;;;;5054243;28;20024;-73
2022/11/15 02:19:19;;;;;;;0.63;0.63;;;9.10;99.90;;;;;;5051383;28;20021;-73
2022/11/15 02:22:21;;;;;;;0.70;0.70;;;9.10;99.90;;;;;;5059798;28;20032;-74
2022/11/15 02:24:56;;;;;;;0.60;0.60;;;9.30;99.90;;;;;;5070439;28;20028;-72
2022/11/15 02:27:39;;;;;;;0.50;0.50;;;9.40;99.90;;;;;;5077963;28;20534;-73
2022/11/15 02:30:36;;;;;;;0.80;0.80;;;9.40;99.90;;;;;;5082074;28;20025;-73
2022/11/15 02:33:19;;;;;;;0.60;0.60;;;9.30;99.90;;;;;;5071655;28;20554;-72
2022/11/15 02:35:57;;;;;;;0.60;0.60;;;9.20;99.90;;;;;;5071309;28;20029;-72
2022/11/15 02:38:30;;;;;;;0.60;0.60;;;9.00;99.90;;;;;;5060532;28;20036;-73
2022/11/15 02:40:59;;;;;;;0.60;0.60;;;8.80;99.90;;;;;;5064775;28;20021;-73
2022/11/15 02:49:51;;;;;;;0.60;0.60;;;8.50;99.90;;;;;;4998531;28;20444;-75
2022/11/15 02:52:19;;;;;;;0.70;0.70;;;8.60;99.90;;;;;;4989799;28;20023;-75
2022/11/15 02:54:57;;;;;;;0.63;0.63;;;8.60;99.90;;;;;;5021592;28;20037;-74
2022/11/15 02:57:49;;;;;;;0.60;0.60;;;8.60;99.90;;;;;;5058102;28;20040;-75
2022/11/15 03:00:19;;;;;;;0.60;0.60;;;8.70;99.90;;;;;;5071165;28;20020;-75
2022/11/15 03:03:44;;;;;;;0.60;0.60;;;8.70;99.90;;;;;;5072152;28;20035;-73
2022/11/15 03:06:35;;;;;;;0.50;0.50;;;8.70;99.90;;;;;;4997707;28;20034;-73
2022/11/15 03:09:16;;;;;;;0.63;0.63;;;8.70;99.90;;;;;;4998871;28;20026;-73
2022/11/15 03:11:50;;;;;;;0.70;0.70;;;8.70;99.90;;;;;;5056138;28;20509;-73
2022/11/15 03:14:36;;;;;;;0.60;0.60;;;8.80;99.90;;;;;;5072874;28;20059;-73
2022/11/15 03:17:17;;;;;;;0.60;0.60;;;8.70;99.90;;;;;;5081672;28;20096;-73
2022/11/15 03:19:55;;;;;;;0.60;0.60;;;8.60;99.90;;;;;;5082361;28;20558;-74
2022/11/15 03:22:24;;;;;;;0.60;0.60;;;8.60;99.90;;;;;;5075081;28;20385;-74
2022/11/15 03:24:55;;;;;;;0.68;0.68;;;8.70;99.90;;;;;;5074691;28;20063;-75
2022/11/15 03:27:26;;;;;;;0.60;0.60;;;8.60;99.90;;;;;;5070710;28;20076;-74
2022/11/15 03:29:57;;;;;;;0.60;0.60;;;8.60;99.90;;;;;;5073279;28;20048;-75
2022/11/15 03:32:27;;;;;;;0.60;0.60;;;8.50;99.90;;;;;;5074628;28;20024;-74
2022/11/15 03:34:58;;;;;;;1.33;1.23;;;8.50;99.90;;;;;;5071914;28;20020;-74
2022/11/15 03:37:33;;;;;;;0.80;0.80;;;8.50;99.90;;;;;;5080401;28;20039;-74
2022/11/15 03:39:59;;;;;;;0.80;0.80;;;8.20;99.90;;;;;;5080194;28;20039;-74
2022/11/15 03:42:50;;;;;;;0.70;0.70;;;7.80;99.90;;;;;;5074952;28;20028;-73
2022/11/15 03:45:23;;;;;;;0.77;0.77;;;7.80;99.90;;;;;;5074285;28;20025;-74
2022/11/15 03:47:59;;;;;;;1.20;1.20;;;7.90;99.90;;;;;;5072768;28;20024;-73
2022/11/15 03:50:25;;;;;;;;;;;7.90;99.90;;;;;;5073519;28;20074;-73
2022/11/15 03:52:53;;;;;;;0.95;0.95;;;7.90;99.90;;;;;;5074423;28;19912;-72
2022/11/15 03:55:20;;;;;;;0.70;0.70;;;7.80;99.90;;;;;;5074309;28;20048;-72
2022/11/15 03:57:49;;;;;;;0.93;0.93;;;7.80;99.90;;;;;;5062406;28;20036;-71
2022/11/15 04:00:15;;;;;;;0.70;0.70;;;7.70;99.90;;;;;;5054054;28;20025;-72
2022/11/15 04:02:40;;;;;;;0.70;0.70;;;7.60;99.90;;;;;;5054157;28;20032;-72
2022/11/15 04:05:06;;;;;;;0.80;0.80;;;7.60;99.90;;;;;;5053906;28;20075;-72
2022/11/15 04:07:32;;;;;;;0.60;0.60;;;7.60;99.90;;;;;;5053711;28;20040;-72
2022/11/15 04:10:03;;;;;;;0.80;0.80;;;7.50;99.90;;;;;;5053776;28;20021;-72
2022/11/15 04:12:30;;;;;;;1.60;1.60;;;7.50;99.90;;;;;;5066490;28;20017;-72
2022/11/15 04:15:08;;;;;;;0.90;0.90;;;7.50;99.90;;;;;;5073752;28;20095;-72
2022/11/15 04:17:44;;;;;;;0.75;0.75;;;7.50;99.90;;;;;;5059514;28;20025;-71
2022/11/15 04:25:50;;;;;;;0.70;0.70;;;7.40;99.90;;;;;;5053739;28;20151;-72
2022/11/15 04:28:16;;;;;;;0.90;0.90;;;7.40;99.90;;;;;;5053399;28;20078;-72
2022/11/15 04:30:42;;;;;;;2.50;1.45;;;7.50;99.90;;;;;;5069073;28;20375;-74
2022/11/15 04:33:07;;;;;;;0.60;0.60;;;7.10;99.90;;;;;;5072517;28;20025;-73
2022/11/15 04:35:33;;;;;;;0.95;0.95;;;6.90;99.90;;;;;;5073291;28;20029;-72
2022/11/15 04:37:59;;;;;;;0.70;0.70;;;6.90;99.90;;;;;;5073176;28;20086;-73
2022/11/15 04:40:25;;;;;;;0.70;0.70;;;6.90;99.90;;;;;;5072128;28;20028;-73
2022/11/15 04:42:51;;;;;;;2.33;2.22;;;6.80;99.90;;;;;;5071784;28;20116;-74
2022/11/15 04:45:16;;;;;;;0.73;0.73;;;6.80;99.90;;;;;;5073138;28;20024;-74
2022/11/15 04:47:46;;;;;;;0.75;0.75;;;6.80;99.90;;;;;;5072908;28;20033;-74
2022/11/15 04:50:13;;;;;;;0.70;0.70;;;6.80;99.90;;;;;;5073157;28;20052;-74
2022/11/15 04:52:59;;;;;;;0.70;0.70;;;6.80;99.90;;;;;;5073135;28;20017;-74
2022/11/15 04:55:24;;;;;;;0.80;0.80;;;6.80;99.90;;;;;;5053779;28;20048;-74
2022/11/15 04:57:58;;;;;;;0.60;0.60;;;6.80;99.90;;;;;;5051593;28;20029;-73
2022/11/15 05:00:24;;;;;;;0.70;0.70;;;6.80;99.90;;;;;;5058104;28;20108;-73
2022/11/15 05:05:34;;;;;;;0.77;0.77;;;6.80;99.90;;;;;;5073000;28;20528;-73
2022/11/15 05:07:59;;;;;;;0.70;0.70;;;6.80;99.90;;;;;;5071263;28;20028;-73
2022/11/15 05:10:25;;;;;;;0.70;0.70;;;6.70;99.90;;;;;;5072682;28;20538;-73
2022/11/15 05:12:50;;;;;;;0.60;0.60;;;6.60;99.90;;;;;;5071285;28;20115;-73
2022/11/15 05:15:16;;;;;;;0.70;0.70;;;6.60;99.90;;;;;;5072681;28;20474;-73
2022/11/15 05:17:41;;;;;;;0.70;0.70;;;6.40;99.90;;;;;;5056954;28;20032;-74
2022/11/15 05:20:07;;;;;;;0.80;0.80;;;6.40;99.90;;;;;;5052620;28;20032;-74
2022/11/15 05:22:33;;;;;;;0.60;0.60;;;6.40;99.90;;;;;;5051191;28;20555;-74
2022/11/15 05:24:58;;;;;;;0.70;0.70;;;6.30;99.90;;;;;;5052543;28;20044;-74
2022/11/15 05:27:24;;;;;;;0.70;0.70;;;6.20;99.90;;;;;;5052105;28;20387;-74
2022/11/15 05:29:49;;;;;;;0.70;0.70;;;6.20;99.90;;;;;;5052371;28;20025;-73
2022/11/15 05:32:17;;;;;;;0.60;0.60;;;6.20;99.90;;;;;;5050574;28;20032;-74
2022/11/15 05:34:43;;;;;;;0.68;0.68;;;6.20;99.90;;;;;;5052280;28;20032;-74
2022/11/15 05:37:09;;;;;;;0.65;0.65;;;6.30;99.90;;;;;;5052027;28;20100;-74
2022/11/15 05:39:35;;;;;;;0.75;0.75;;;6.40;99.90;;;;;;5052243;28;20155;-74
2022/11/15 05:42:09;;;;;;;0.60;0.60;;;6.40;99.90;;;;;;5052052;28;20036;-74
2022/11/15 05:44:36;;;;;;;0.60;0.60;;;6.40;99.90;;;;;;5052044;28;20021;-73
2022/11/15 05:47:04;;;;;;;0.80;0.80;;;6.40;99.90;;;;;;5050766;28;20340;-73
2022/11/15 05:49:34;;;;;;;0.75;0.75;;;6.40;99.90;;;;;;5051959;28;20036;-73
2022/11/15 05:52:02;;;;;;;0.60;0.60;;;6.40;99.90;;;;;;5052101;28;20045;-73
2022/11/15 05:54:28;;;;;;;0.70;0.70;;;6.30;99.90;;;;;;5050673;28;20025;-73
2022/11/15 05:56:54;;;;;;;0.70;0.70;;;6.10;99.90;;;;;;5051602;28;20487;-73
2022/11/15 05:59:20;;;;;;;0.70;0.70;;;6.20;99.90;;;;;;5051931;28;20014;-73
2022/11/15 06:01:46;;;;;;;0.77;0.77;;;6.20;99.90;;;;;;5054607;28;20025;-75
2022/11/15 06:04:11;;;;;;;0.77;0.77;;;6.20;99.90;;;;;;5075093;28;20030;-75
2022/11/15 06:06:37;;;;;;;0.80;0.80;;;6.20;99.90;;;;;;5072080;28;20082;-75
2022/11/15 06:09:03;;;;;;;0.90;0.90;;;6.20;99.90;;;;;;5061375;28;20123;-73
2022/11/15 06:11:28;;;;;;;0.80;0.80;;;6.20;99.90;;;;;;5056192;28;20028;-74
2022/11/15 06:13:54;;;;;;;0.70;0.70;;;6.00;99.90;;;;;;5060597;28;20430;-75
2022/11/15 06:16:20;;;;;;;0.70;0.70;;;6.00;99.90;;;;;;5064808;28;20478;-75
2022/11/15 06:18:45;;;;;;;0.80;0.80;;;5.90;99.90;;;;;;5062315;28;20062;-75
2022/11/15 06:21:11;;;;;;;0.70;0.70;;;5.80;99.90;;;;;;5067640;28;20060;-73
2022/11/15 06:23:36;;;;;;;0.70;0.70;;;5.90;99.90;;;;;;5051606;28;20037;-75
2022/11/15 06:26:03;;;;;;;1.10;1.10;;;5.90;99.90;;;;;;5051499;28;20037;-75
2022/11/15 06:28:32;;;;;;;3.45;3.25;;;5.90;99.90;;;;;;5062127;28;20025;-75
2022/11/15 06:31:10;;;;;;;0.70;0.70;;;5.90;99.90;;;;;;5071517;28;20478;-75
2022/11/15 06:33:36;;;;;;;0.70;0.70;;;5.90;99.90;;;;;;5071516;28;20428;-75
2022/11/15 06:36:13;;;;;;;0.80;0.80;;;5.90;99.90;;;;;;5056622;28;20292;-75
2022/11/15 06:38:39;;;;;;;0.80;0.80;;;5.90;99.90;;;;;;5056530;28;20032;-75
2022/11/15 06:41:07;;;;;;;2.53;2.30;;;5.90;99.90;;;;;;5070193;28;20028;-75
2022/11/15 06:43:34;;;;;;;2.45;1.75;;;5.70;99.90;;;;;;5071394;28;20039;-74
2022/11/15 06:46:00;;;;;;;0.90;0.90;;;5.30;99.90;;;;;;5075269;28;20736;-75
2022/11/15 06:48:27;;;;;;;1.38;1.27;;;5.20;99.90;;;;;;5075243;28;20473;-75
2022/11/15 06:50:54;;;;;;;1.00;1.00;;;5.20;99.90;;;;;;5074204;28;20079;-76
2022/11/15 06:53:20;;;;;;;0.80;0.80;;;5.20;99.90;;;;;;5060315;28;20043;-75
2022/11/15 06:55:46;;;;;;;1.00;1.00;;;5.10;99.90;;;;;;5061773;28;20486;-76
2022/11/15 06:58:11;;;;;;;0.95;0.95;;;5.10;99.90;;;;;;5060123;28;20036;-75
2022/11/15 07:00:37;;;;;;;0.90;0.90;;;5.10;99.90;;;;;;5063230;28;20039;-74
2022/11/15 07:03:03;;;;;;;1.00;1.00;;;5.30;99.90;;;;;;5075121;28;20034;-74
2022/11/15 07:05:29;;;;;;;1.15;1.15;;;5.40;99.90;;;;;;5075022;28;20027;-74
2022/11/15 07:07:56;;;;;;;2.08;1.98;;;5.50;99.90;;;;;;5061177;28;20025;-75
2022/11/15 07:10:24;;;;;;;0.90;0.90;;;5.50;99.90;;;;;;5073545;28;20025;-74
2022/11/15 07:12:53;;;;;;;3.13;2.83;;;5.40;99.90;;;;;;5055440;28;20029;-75
2022/11/15 07:15:21;;;;;;;0.80;0.80;;;5.50;99.90;;;;;;5074979;28;20046;-75
2022/11/15 07:17:47;;;;;;;1.00;1.00;;;5.60;99.90;;;;;;5074535;28;20433;-74
2022/11/15 07:20:13;;;;;;;0.90;0.90;;;5.60;99.90;;;;;;5075028;28;20033;-75
2022/11/15 07:22:44;;;;;;;1.10;1.10;;;5.70;99.90;;;;;;5073633;28;20378;-74
2022/11/15 07:25:10;;;;;;;1.00;1.00;;;5.90;99.90;;;;;;5074783;28;20020;-74
2022/11/15 07:27:36;;;;;;;1.67;1.58;;;6.00;99.90;;;;;;5070313;28;20041;-75
2022/11/15 07:30:02;;;;;;;1.80;1.70;;;5.90;99.90;;;;;;5064247;28;20020;-75
2022/11/15 07:32:27;;;;;;;1.10;1.10;;;6.00;99.90;;;;;;5074603;28;20051;-75
2022/11/15 07:34:53;;;;;;;1.38;1.38;;;6.00;99.90;;;;;;5074488;28;20024;-74
2022/11/15 07:37:18;;;;;;;1.08;1.08;;;5.90;99.90;;;;;;5060979;28;20036;-75
2022/11/15 07:39:44;;;;;;;1.00;1.00;;;5.90;99.90;;;;;;5074388;28;20039;-75
2022/11/15 07:44:54;;;;;;;1.92;1.90;;;6.00;99.90;;;;;;5073671;28;20126;-75
2022/11/15 07:47:20;;;;;;;1.58;1.58;;;6.20;99.90;;;;;;5059373;28;20032;-75
2022/11/15 07:49:46;;;;;;;0.70;0.70;;;6.30;99.90;;;;;;5078006;28;20031;-75
2022/11/15 07:52:13;;;;;;;0.82;0.82;;;6.40;99.90;;;;;;5075408;28;20021;-75
2022/11/15 07:54:39;;;;;;;0.80;0.80;;;6.40;99.90;;;;;;5061671;28;20025;-74
2022/11/15 07:57:05;;;;;;;1.48;1.48;;;6.50;99.90;;;;;;5072690;28;20040;-75
2022/11/15 07:59:31;;;;;;;1.00;1.00;;;6.70;99.90;;;;;;5074071;28;20025;-75
2022/11/15 08:01:56;;;;;;;0.90;0.90;;;6.70;99.90;;;;;;5074008;28;20028;-74
2022/11/15 08:04:22;;;;;;;1.10;1.10;;;6.70;99.90;;;;;;5072906;28;20031;-74
2022/11/15 08:06:47;;;;;;;0.80;0.80;;;6.80;99.90;;;;;;5072250;28;20024;-74
2022/11/15 08:09:13;;;;;;;0.90;0.90;;;6.80;99.90;;;;;;5073805;28;20021;-75
2022/11/15 08:11:38;;;;;;;0.90;0.90;;;6.90;99.90;;;;;;5067214;28;20075;-74
2022/11/15 08:14:04;;;;;;;0.85;0.85;;;6.90;99.90;;;;;;5064505;28;20029;-75
2022/11/15 08:16:30;;;;;;;0.93;0.93;;;7.00;99.90;;;;;;5060935;28;20497;-74
2022/11/15 08:18:56;;;;;;;1.00;1.00;;;7.00;99.90;;;;;;5077019;28;20012;-75
2022/11/15 08:21:22;;;;;;;1.00;1.00;;;7.20;99.90;;;;;;5086798;28;20531;-75
2022/11/15 08:23:47;;;;;;;0.80;0.80;;;7.20;99.90;;;;;;5073792;28;20074;-76
2022/11/15 08:26:13;;;;;;;1.00;1.00;;;7.20;99.90;;;;;;5073230;28;20410;-75
2022/11/15 08:28:38;;;;;;;0.95;0.95;;;7.30;99.90;;;;;;5074134;28;20052;-75
2022/11/15 08:31:04;;;;;;;1.00;1.00;;;7.30;99.90;;;;;;5059101;28;20073;-74
2022/11/15 08:33:31;;;;;;;0.90;0.90;;;7.40;99.90;;;;;;5088129;28;20502;-75
2022/11/15 08:35:57;;;;;;;0.90;0.90;;;7.50;99.90;;;;;;5068788;28;20025;-74
2022/11/15 08:38:23;;;;;;;1.10;1.10;;;7.60;99.90;;;;;;5063128;28;20030;-75
2022/11/15 08:40:50;;;;;;;0.82;0.82;;;7.70;99.90;;;;;;5060096;28;20021;-75
2022/11/15 08:43:16;;;;;;;0.93;0.93;;;7.70;99.90;;;;;;5060217;28;20029;-74
2022/11/15 08:45:41;;;;;;;0.90;0.90;;;7.70;99.90;;;;;;5071566;28;20027;-74
2022/11/15 08:48:07;;;;;;;1.00;1.00;;;7.90;99.90;;;;;;5061570;28;20021;-74
2022/11/15 08:50:32;;;;;;;0.90;0.90;;;7.90;99.90;;;;;;5066726;28;20470;-74
2022/11/15 08:53:03;;;;;;;1.35;1.35;;;8.00;99.90;;;;;;5063412;28;20086;-74
2022/11/15 08:55:29;;;;;;;0.90;0.90;;;8.10;99.90;;;;;;5054137;28;20471;-74
2022/11/15 08:57:57;;;;;;;0.85;0.85;;;8.20;99.90;;;;;;5063970;28;20036;-74
2022/11/15 09:00:22;;;;;;;0.90;0.90;;;8.20;99.90;;;;;;5067246;28;20403;-74
2022/11/15 09:02:48;;;;;;;0.98;0.98;;;8.30;99.90;;;;;;5065705;28;20025;-74
2022/11/15 09:05:15;;;;;;;0.90;0.90;;;8.30;99.90;;;;;;5052584;28;20467;-74
2022/11/15 09:07:40;;;;;;;0.90;0.90;;;8.40;99.90;;;;;;5052680;28;20368;-80
2022/11/15 09:10:06;;;;;;;1.00;1.00;;;8.50;99.90;;;;;;5069447;28;20028;-78
2022/11/15 09:12:32;;;;;;;0.93;0.93;;;8.50;99.90;;;;;;5067510;28;20028;-74
2022/11/15 09:14:58;;;;;;;0.77;0.77;;;8.60;99.90;;;;;;5052063;28;20025;-75
2022/11/15 09:17:23;;;;;;;0.80;0.80;;;8.80;99.90;;;;;;5065307;28;20028;-75
2022/11/15 09:19:49;;;;;;;0.80;0.80;;;8.80;99.90;;;;;;5072678;28;20195;-74
2022/11/15 09:22:14;;;;;;;0.70;0.70;;;8.80;99.90;;;;;;5071610;28;20048;-74
2022/11/15 09:24:40;;;;;;;0.80;0.80;;;8.80;99.90;;;;;;5071189;28;20024;-74
2022/11/15 09:27:05;;;;;;;0.90;0.90;;;8.80;99.90;;;;;;5072577;28;20103;-74
2022/11/15 09:29:31;;;;;;;0.90;0.90;;;8.80;99.90;;;;;;5072491;28;20025;-74
2022/11/15 09:31:56;;;;;;;0.70;0.70;;;8.90;99.90;;;;;;5059858;28;20480;-74
2022/11/15 09:34:22;;;;;;;3.10;3.00;;;9.00;99.90;;;;;;5051089;28;20541;-75
2022/11/15 09:36:47;;;;;;;0.70;0.70;;;9.00;99.90;;;;;;5052103;28;20029;-75
2022/11/15 09:39:13;;;;;;;2.83;2.72;;;9.10;99.90;;;;;;5069868;28;20031;-74
2022/11/15 09:41:50;;;;;;;0.70;0.70;;;9.20;99.90;;;;;;5072164;28;20052;-74
2022/11/15 09:44:38;;;;;;;0.77;0.77;;;9.20;99.90;;;;;;5065267;28;20108;-74
2022/11/15 09:47:33;;;;;;;0.85;0.85;;;9.30;99.90;;;;;;5050759;28;20029;-74
2022/11/15 09:50:00;;;;;;;0.70;0.70;;;9.40;99.90;;;;;;5065690;28;20481;-74
2022/11/15 09:52:26;;;;;;;0.70;0.70;;;9.40;99.90;;;;;;5059469;28;20029;-74
2022/11/15 09:54:52;;;;;;;0.70;0.70;;;9.30;99.90;;;;;;5058586;28;20017;-74
2022/11/15 09:57:32;;;;;;;0.60;0.60;;;9.40;99.90;;;;;;5071525;28;20034;-74
2022/11/15 10:00:07;;;;;;;0.70;0.70;;;9.40;99.90;;;;;;5070582;28;20028;-75
2022/11/15 10:02:58;;;;;;;0.60;0.60;;;9.60;99.90;;;;;;5070651;28;20051;-74
2022/11/15 10:05:26;;;;;;;1.45;1.38;;;9.90;99.90;;;;;;5054270;28;20036;-74
2022/11/15 10:08:29;;;;;;;0.50;0.50;;;10.30;99.90;;;;;;5069624;28;20083;-74
2022/11/15 10:11:00;;;;;;;1.85;1.38;;;10.40;99.90;;;;;;5050298;28;20033;-74
2022/11/15 10:13:29;;;;;;;0.85;0.75;;;10.30;99.90;;;;;;5056933;28;20073;-74
2022/11/15 10:16:04;;;;;;;0.50;0.50;;;10.40;99.90;;;;;;5057100;28;20032;-74
2022/11/15 10:18:35;;;;;;;0.50;0.50;;;10.40;99.90;;;;;;5049891;28;20023;-74
2022/11/15 10:21:17;;;;;;;0.38;0.38;;;10.50;99.90;;;;;;5050087;28;20044;-74
2022/11/15 10:23:43;;;;;;;0.40;0.40;;;10.80;99.90;;;;;;5048841;28;20060;-74
2022/11/15 10:26:13;;;;;;;0.35;0.35;;;10.90;99.90;;;;;;5049861;28;20546;-74
2022/11/15 10:28:39;;;;;;;1.75;1.65;;;11.10;99.90;;;;;;5049796;28;20025;-75
2022/11/15 10:31:27;;;;;;;0.45;0.45;;;11.20;99.90;;;;;;5049961;28;20032;-75
2022/11/15 10:34:16;;;;;;;0.68;0.68;;;11.50;99.90;;;;;;5049994;28;20107;-75
2022/11/15 10:36:53;;;;;;;0.30;0.30;;;11.80;99.90;;;;;;5049822;28;20037;-74
2022/11/15 10:39:18;;;;;;;0.95;0.95;;;11.80;99.90;;;;;;5054293;28;20040;-75
2022/11/15 10:41:44;;;;;;;0.60;0.60;;;11.80;99.90;;;;;;5068573;28;20032;-75
2022/11/15 10:44:23;;;;;;;0.30;0.30;;;12.10;99.90;;;;;;5063963;28;20029;-74
2022/11/15 10:47:16;;;;;;;0.30;0.30;;;12.30;99.90;;;;;;5061474;28;20028;-74
2022/11/15 10:49:54;;;;;;;0.30;0.30;;;12.20;99.90;;;;;;5061249;28;20044;-75
2022/11/15 10:52:21;;;;;;;0.30;0.30;;;12.10;99.90;;;;;;5069918;28;20075;-74
2022/11/15 10:54:55;;;;;;;0.50;0.50;;;12.20;99.90;;;;;;5069780;28;20367;-75
2022/11/15 10:57:27;;;;;;;0.25;0.25;;;12.10;99.90;;;;;;5057043;28;20150;-75
2022/11/15 11:00:00;;;;;;;0.35;0.35;;;12.30;99.90;;;;;;5068381;28;20410;-75
2022/11/15 11:02:45;;;;;;;0.20;0.20;;;12.20;99.90;;;;;;5068450;28;20025;-75
2022/11/15 11:05:33;;;;;;;0.40;0.40;;;12.50;99.90;;;;;;5054853;28;20044;-74
2022/11/15 11:08:21;;;;;;;0.43;0.43;;;12.40;99.90;;;;;;5055968;28;20029;-74
2022/11/15 11:10:57;;;;;;;0.60;0.60;;;12.70;99.90;;;;;;5067945;28;20044;-75
2022/11/15 11:13:31;;;;;;;0.65;0.65;;;12.80;99.90;;;;;;5074704;28;20040;-74
2022/11/15 11:16:14;;;;;;;0.30;0.30;;;12.90;99.90;;;;;;5085260;28;20028;-74
2022/11/15 11:18:48;;;;;;;0.73;0.73;;;12.80;99.90;;;;;;5049302;28;20086;-75
2022/11/15 11:21:22;;;;;;;0.55;0.55;;;12.70;99.90;;;;;;5048215;28;20029;-75
2022/11/15 11:24:10;;;;;;;0.60;0.60;;;12.90;99.90;;;;;;5049535;28;20104;-75
2022/11/15 11:26:54;;;;;;;2.42;1.42;;;12.80;99.90;;;;;;5049382;28;20049;-75
2022/11/15 11:29:31;;;;;;;0.20;0.20;;;12.80;99.90;;;;;;5049461;28;20017;-75
2022/11/15 11:32:19;;;;;;;3.35;1.05;;;13.00;99.90;;;;;;5053037;28;20051;-75
2022/11/15 11:34:48;;;;;;;0.20;0.20;;;13.00;99.90;;;;;;5059651;28;20029;-75
2022/11/15 11:37:38;;;;;;;0.30;0.30;;;13.00;99.90;;;;;;5072742;28;20798;-75
2022/11/15 11:40:20;;;;;;;0.10;0.10;;;12.90;99.90;;;;;;5071583;28;20033;-75
2022/11/15 11:42:53;;;;;;;0.20;0.20;;;13.10;99.90;;;;;;5070209;28;20545;-75
2022/11/15 11:45:19;;;;;;;0.20;0.20;;;13.10;99.90;;;;;;5072861;28;20620;-75
2022/11/15 11:48:03;;;;;;;0.20;0.20;;;12.90;99.90;;;;;;5066995;28;20123;-76
2022/11/15 11:50:29;;;;;;;0.20;0.20;;;12.80;99.90;;;;;;5069633;28;20441;-74
2022/11/15 11:53:03;;;;;;;0.30;0.30;;;12.70;99.90;;;;;;5086016;28;20020;-74
2022/11/15 11:55:41;;;;;;;0.20;0.20;;;12.80;99.90;;;;;;5088556;28;20054;-75
2022/11/15 11:58:19;;;;;;;0.20;0.20;;;12.90;99.90;;;;;;5074088;28;20058;-74
2022/11/15 12:01:21;;;;;;;0.20;0.20;;;12.80;99.90;;;;;;5074152;28;20032;-75
2022/11/15 12:03:54;;;;;;;1.00;0.75;;;13.30;99.90;;;;;;5069337;28;20020;-74
2022/11/15 12:06:45;;;;;;;0.63;0.63;;;13.30;99.90;;;;;;5081429;28;20024;-75
2022/11/15 12:09:23;;;;;;;0.65;0.65;;;13.60;99.90;;;;;;5072724;28;20028;-74
2022/11/15 12:12:13;;;;;;;0.30;0.30;;;13.60;99.90;;;;;;5060963;28;20486;-74
2022/11/15 12:14:44;;;;;;;0.20;0.20;;;13.80;99.90;;;;;;5073876;28;20111;-74
2022/11/15 12:17:11;;;;;;;0.20;0.20;;;13.70;99.90;;;;;;5063016;28;20021;-75
2022/11/15 12:19:37;;;;;;;0.20;0.20;;;13.50;99.90;;;;;;5052482;28;20518;-74
2022/11/15 12:22:18;;;;;;;0.20;0.20;;;13.60;99.90;;;;;;5063362;28;20043;-75
2022/11/15 12:25:26;;;;;;;0.20;0.20;;;13.60;99.90;;;;;;5060409;28;20028;-74
2022/11/15 12:28:01;;;;;;;0.40;0.40;;;13.90;99.90;;;;;;5053767;28;20033;-74
2022/11/15 12:30:47;;;;;;;0.30;0.30;;;14.20;99.90;;;;;;5060574;28;20113;-74
2022/11/15 12:33:41;;;;;;;0.20;0.20;;;14.10;99.90;;;;;;5058421;28;20812;-75
2022/11/15 12:36:32;;;;;;;0.10;0.10;;;14.00;99.90;;;;;;5072223;28;20078;-75
2022/11/15 12:39:08;;;;;;;0.30;0.30;;;14.20;99.90;;;;;;5070602;28;20013;-77
2022/11/15 12:41:55;;;;;;;0.20;0.20;;;14.20;99.90;;;;;;5063038;28;20021;-76
2022/11/15 12:44:36;;;;;;;;;;;14.20;99.90;;;;;;5073722;28;20103;-76
2022/11/15 12:47:22;;;;;;;0.20;0.20;;;14.20;99.90;;;;;;5058275;28;19908;-75
2022/11/15 12:49:48;;;;;;;0.10;0.10;;;14.20;99.90;;;;;;5059735;28;20496;-75
2022/11/15 12:52:15;;;;;;;0.20;0.20;;;14.30;99.90;;;;;;5066745;28;20035;-76
2022/11/15 12:54:40;;;;;;;0.20;0.20;;;14.40;99.90;;;;;;5065505;28;20383;-76
2022/11/15 12:57:06;;;;;;;0.20;0.20;;;14.20;99.90;;;;;;5058108;28;20036;-76
2022/11/15 12:59:55;;;;;;;0.20;0.20;;;14.20;99.90;;;;;;5060766;28;20025;-73
2022/11/15 13:02:44;;;;;;;0.20;0.20;;;14.10;99.90;;;;;;5060515;28;20121;-75
2022/11/15 13:05:15;;;;;;;0.20;0.20;;;13.90;99.90;;;;;;5067827;28;20391;-76
2022/11/15 13:07:41;;;;;;;4.60;4.45;;;13.90;99.90;;;;;;5064358;28;20031;-75
2022/11/15 13:10:09;;;;;;;0.20;0.20;;;13.80;99.90;;;;;;5061532;28;20391;-76
2022/11/15 13:12:38;;;;;;;0.10;0.10;;;13.70;99.90;;;;;;5059577;28;20029;-76
2022/11/15 13:15:13;;;;;;;0.10;0.10;;;13.60;99.90;;;;;;5054764;28;20160;-76
2022/11/15 13:17:48;;;;;;;0.20;0.20;;;13.50;99.90;;;;;;5054423;28;20092;-76
2022/11/15 13:20:14;;;;;;;0.20;0.20;;;13.50;99.90;;;;;;5072724;28;20025;-75
2022/11/15 13:22:51;;;;;;;0.10;0.10;;;13.50;99.90;;;;;;5071610;28;20029;-76
2022/11/15 13:25:45;;;;;;;0.10;0.10;;;13.40;99.90;;;;;;5070737;28;20391;-75
2022/11/15 13:28:16;;;;;;;0.10;0.10;;;13.40;99.90;;;;;;5070248;28;20033;-76
2022/11/15 13:31:34;;;;;;;0.20;0.20;;;13.50;99.90;;;;;;5071418;28;20021;-76
2022/11/15 13:34:28;;;;;;;2.05;1.95;;;13.40;99.90;;;;;;5066578;28;20033;-76